sensor_id;sensor_type;location;lat;lon;timestamp;P1;durP1;ratioP1;P2;durP2;ratioP2
27802;SDS011;15182;48.174;11.562;2023-12-20T00:00:40;4.33;;;4.00;;
27802;SDS011;15182;48.174;11.562;2023-12-20T00:03:07;4.43;;;4.23;;
27802;SDS011;15182;48.174;11.562;2023-12-20T00:05:35;3.90;;;3.80;;
27802;SDS011;15182;48.174;11.562;2023-12-20T00:08:06;4.03;;;3.93;;
27802;SDS011;15182;48.174;11.562;2023-12-20T00:10:34;3.80;;;3.70;;
27802;SDS011;15182;48.174;11.562;2023-12-20T00:13:02;3.77;;;3.77;;
27802;SDS011;15182;48.174;11.562;2023-12-20T00:15:32;4.57;;;4.37;;
27802;SDS011;15182;48.174;11.562;2023-12-20T00:17:59;4.40;;;4.30;;
27802;SDS011;15182;48.174;11.562;2023-12-20T00:20:27;4.63;;;4.53;;
27802;SDS011;15182;48.174;11.562;2023-12-20T00:22:56;3.57;;;3.47;;
27802;SDS011;15182;48.174;11.562;2023-12-20T00:25:24;4.57;;;4.20;;
27802;SDS011;15182;48.174;11.562;2023-12-20T00:27:52;4.03;;;3.80;;
27802;SDS011;15182;48.174;11.562;2023-12-20T00:30:20;4.13;;;4.03;;
27802;SDS011;15182;48.174;11.562;2023-12-20T00:32:49;3.90;;;3.80;;
27802;SDS011;15182;48.174;11.562;2023-12-20T00:35:17;3.63;;;3.53;;
27802;SDS011;15182;48.174;11.562;2023-12-20T00:37:45;4.07;;;3.90;;
27802;SDS011;15182;48.174;11.562;2023-12-20T00:40:13;3.57;;;3.47;;
27802;SDS011;15182;48.174;11.562;2023-12-20T00:42:41;3.67;;;3.57;;
27802;SDS011;15182;48.174;11.562;2023-12-20T00:45:09;3.77;;;3.67;;
27802;SDS011;15182;48.174;11.562;2023-12-20T00:47:37;4.10;;;4.00;;
27802;SDS011;15182;48.174;11.562;2023-12-20T00:50:06;3.93;;;3.93;;
27802;SDS011;15182;48.174;11.562;2023-12-20T00:52:35;3.60;;;3.40;;
27802;SDS011;15182;48.174;11.562;2023-12-20T00:55:03;3.87;;;3.57;;
27802;SDS011;15182;48.174;11.562;2023-12-20T00:57:32;3.67;;;3.57;;
27802;SDS011;15182;48.174;11.562;2023-12-20T00:59:59;3.70;;;3.60;;
27802;SDS011;15182;48.174;11.562;2023-12-20T01:02:27;3.57;;;3.47;;
27802;SDS011;15182;48.174;11.562;2023-12-20T01:04:55;3.03;;;3.03;;
27802;SDS011;15182;48.174;11.562;2023-12-20T01:07:24;3.50;;;3.30;;
27802;SDS011;15182;48.174;11.562;2023-12-20T01:09:52;3.50;;;3.40;;
27802;SDS011;15182;48.174;11.562;2023-12-20T01:12:20;3.43;;;3.23;;
27802;SDS011;15182;48.174;11.562;2023-12-20T01:14:47;3.47;;;3.47;;
27802;SDS011;15182;48.174;11.562;2023-12-20T01:17:15;3.13;;;3.13;;
27802;SDS011;15182;48.174;11.562;2023-12-20T01:19:43;3.50;;;3.40;;
27802;SDS011;15182;48.174;11.562;2023-12-20T01:22:11;3.30;;;3.27;;
27802;SDS011;15182;48.174;11.562;2023-12-20T01:24:40;3.37;;;3.27;;
27802;SDS011;15182;48.174;11.562;2023-12-20T01:27:08;3.27;;;3.20;;
27802;SDS011;15182;48.174;11.562;2023-12-20T01:29:36;3.20;;;3.20;;
27802;SDS011;15182;48.174;11.562;2023-12-20T01:32:04;3.27;;;3.13;;
27802;SDS011;15182;48.174;11.562;2023-12-20T01:34:33;3.47;;;3.37;;
27802;SDS011;15182;48.174;11.562;2023-12-20T01:37:01;3.13;;;3.13;;
27802;SDS011;15182;48.174;11.562;2023-12-20T01:39:29;3.10;;;3.10;;
27802;SDS011;15182;48.174;11.562;2023-12-20T01:41:59;3.00;;;2.90;;
27802;SDS011;15182;48.174;11.562;2023-12-20T01:44:26;3.37;;;3.30;;
27802;SDS011;15182;48.174;11.562;2023-12-20T01:47:02;3.50;;;3.40;;
27802;SDS011;15182;48.174;11.562;2023-12-20T01:49:30;3.40;;;3.20;;
27802;SDS011;15182;48.174;11.562;2023-12-20T01:51:58;3.47;;;3.47;;
27802;SDS011;15182;48.174;11.562;2023-12-20T01:54:25;3.30;;;3.20;;
27802;SDS011;15182;48.174;11.562;2023-12-20T01:56:53;3.07;;;3.07;;
27802;SDS011;15182;48.174;11.562;2023-12-20T01:59:23;2.97;;;2.87;;
27802;SDS011;15182;48.174;11.562;2023-12-20T02:01:51;3.00;;;3.00;;
27802;SDS011;15182;48.174;11.562;2023-12-20T02:04:19;2.93;;;2.93;;
27802;SDS011;15182;48.174;11.562;2023-12-20T02:06:47;3.10;;;3.00;;
27802;SDS011;15182;48.174;11.562;2023-12-20T02:09:17;3.00;;;2.90;;
27802;SDS011;15182;48.174;11.562;2023-12-20T02:11:45;2.60;;;2.60;;
27802;SDS011;15182;48.174;11.562;2023-12-20T02:14:13;2.70;;;2.70;;
27802;SDS011;15182;48.174;11.562;2023-12-20T02:16:42;3.20;;;3.20;;
27802;SDS011;15182;48.174;11.562;2023-12-20T02:19:12;2.70;;;2.70;;
27802;SDS011;15182;48.174;11.562;2023-12-20T02:21:43;3.03;;;2.93;;
27802;SDS011;15182;48.174;11.562;2023-12-20T02:24:11;3.03;;;3.03;;
27802;SDS011;15182;48.174;11.562;2023-12-20T02:26:38;3.00;;;3.00;;
27802;SDS011;15182;48.174;11.562;2023-12-20T02:29:07;3.20;;;3.20;;
27802;SDS011;15182;48.174;11.562;2023-12-20T02:31:35;2.80;;;2.80;;
27802;SDS011;15182;48.174;11.562;2023-12-20T02:34:03;2.90;;;2.90;;
27802;SDS011;15182;48.174;11.562;2023-12-20T02:36:31;2.53;;;2.53;;
27802;SDS011;15182;48.174;11.562;2023-12-20T02:39:00;2.90;;;2.90;;
27802;SDS011;15182;48.174;11.562;2023-12-20T02:41:28;2.97;;;2.97;;
27802;SDS011;15182;48.174;11.562;2023-12-20T02:43:55;2.93;;;2.93;;
27802;SDS011;15182;48.174;11.562;2023-12-20T02:46:23;3.13;;;3.03;;
27802;SDS011;15182;48.174;11.562;2023-12-20T02:48:51;2.70;;;2.70;;
27802;SDS011;15182;48.174;11.562;2023-12-20T02:51:19;2.60;;;2.60;;
27802;SDS011;15182;48.174;11.562;2023-12-20T02:53:47;2.80;;;2.80;;
27802;SDS011;15182;48.174;11.562;2023-12-20T02:56:16;2.80;;;2.80;;
27802;SDS011;15182;48.174;11.562;2023-12-20T02:58:44;2.87;;;2.87;;
27802;SDS011;15182;48.174;11.562;2023-12-20T03:01:11;2.63;;;2.63;;
27802;SDS011;15182;48.174;11.562;2023-12-20T03:03:39;2.50;;;2.50;;
27802;SDS011;15182;48.174;11.562;2023-12-20T03:06:07;2.60;;;2.60;;
27802;SDS011;15182;48.174;11.562;2023-12-20T03:08:35;2.80;;;2.80;;
27802;SDS011;15182;48.174;11.562;2023-12-20T03:11:03;2.80;;;2.80;;
27802;SDS011;15182;48.174;11.562;2023-12-20T03:13:32;3.10;;;3.00;;
27802;SDS011;15182;48.174;11.562;2023-12-20T03:16:00;2.57;;;2.57;;
27802;SDS011;15182;48.174;11.562;2023-12-20T03:18:28;2.40;;;2.40;;
27802;SDS011;15182;48.174;11.562;2023-12-20T03:20:55;2.67;;;2.67;;
27802;SDS011;15182;48.174;11.562;2023-12-20T03:23:23;2.90;;;2.90;;
27802;SDS011;15182;48.174;11.562;2023-12-20T03:25:52;2.50;;;2.40;;
27802;SDS011;15182;48.174;11.562;2023-12-20T03:28:20;2.63;;;2.63;;
27802;SDS011;15182;48.174;11.562;2023-12-20T03:30:50;2.67;;;2.67;;
27802;SDS011;15182;48.174;11.562;2023-12-20T03:33:17;2.30;;;2.30;;
27802;SDS011;15182;48.174;11.562;2023-12-20T03:35:45;2.83;;;2.83;;
27802;SDS011;15182;48.174;11.562;2023-12-20T03:38:13;2.60;;;2.60;;
27802;SDS011;15182;48.174;11.562;2023-12-20T03:40:41;2.80;;;2.80;;
27802;SDS011;15182;48.174;11.562;2023-12-20T03:43:09;2.80;;;2.77;;
27802;SDS011;15182;48.174;11.562;2023-12-20T03:45:37;2.67;;;2.67;;
27802;SDS011;15182;48.174;11.562;2023-12-20T03:48:06;2.40;;;2.33;;
27802;SDS011;15182;48.174;11.562;2023-12-20T03:50:34;2.60;;;2.60;;
27802;SDS011;15182;48.174;11.562;2023-12-20T03:53:02;3.20;;;2.90;;
27802;SDS011;15182;48.174;11.562;2023-12-20T03:55:30;2.40;;;2.40;;
27802;SDS011;15182;48.174;11.562;2023-12-20T03:57:58;2.40;;;2.40;;
27802;SDS011;15182;48.174;11.562;2023-12-20T04:00:26;2.70;;;2.70;;
27802;SDS011;15182;48.174;11.562;2023-12-20T04:02:54;3.20;;;2.90;;
27802;SDS011;15182;48.174;11.562;2023-12-20T04:05:23;2.87;;;2.67;;
27802;SDS011;15182;48.174;11.562;2023-12-20T04:07:51;2.63;;;2.63;;
27802;SDS011;15182;48.174;11.562;2023-12-20T04:10:18;2.63;;;2.63;;
27802;SDS011;15182;48.174;11.562;2023-12-20T04:12:46;2.90;;;2.90;;
27802;SDS011;15182;48.174;11.562;2023-12-20T04:15:14;2.43;;;2.43;;
27802;SDS011;15182;48.174;11.562;2023-12-20T04:17:42;2.80;;;2.80;;
27802;SDS011;15182;48.174;11.562;2023-12-20T04:20:10;2.40;;;2.40;;
27802;SDS011;15182;48.174;11.562;2023-12-20T04:22:39;2.70;;;2.70;;
27802;SDS011;15182;48.174;11.562;2023-12-20T04:25:08;2.63;;;2.63;;
27802;SDS011;15182;48.174;11.562;2023-12-20T04:27:36;2.73;;;2.73;;
27802;SDS011;15182;48.174;11.562;2023-12-20T04:30:04;2.33;;;2.33;;
27802;SDS011;15182;48.174;11.562;2023-12-20T04:32:33;2.40;;;2.40;;
27802;SDS011;15182;48.174;11.562;2023-12-20T04:35:01;2.63;;;2.63;;
27802;SDS011;15182;48.174;11.562;2023-12-20T04:37:30;2.67;;;2.67;;
27802;SDS011;15182;48.174;11.562;2023-12-20T04:39:59;2.50;;;2.50;;
27802;SDS011;15182;48.174;11.562;2023-12-20T04:42:27;2.87;;;2.87;;
27802;SDS011;15182;48.174;11.562;2023-12-20T04:44:55;2.70;;;2.70;;
27802;SDS011;15182;48.174;11.562;2023-12-20T04:47:24;2.83;;;2.83;;
27802;SDS011;15182;48.174;11.562;2023-12-20T04:49:51;3.20;;;3.20;;
27802;SDS011;15182;48.174;11.562;2023-12-20T04:52:19;3.00;;;3.00;;
27802;SDS011;15182;48.174;11.562;2023-12-20T04:54:47;3.17;;;3.17;;
27802;SDS011;15182;48.174;11.562;2023-12-20T04:57:16;2.83;;;2.83;;
27802;SDS011;15182;48.174;11.562;2023-12-20T04:59:44;3.00;;;3.00;;
27802;SDS011;15182;48.174;11.562;2023-12-20T05:02:12;3.27;;;3.27;;
27802;SDS011;15182;48.174;11.562;2023-12-20T05:04:40;2.90;;;2.90;;
27802;SDS011;15182;48.174;11.562;2023-12-20T05:07:08;3.03;;;3.03;;
27802;SDS011;15182;48.174;11.562;2023-12-20T05:09:36;3.27;;;3.17;;
27802;SDS011;15182;48.174;11.562;2023-12-20T05:12:04;3.23;;;3.23;;
27802;SDS011;15182;48.174;11.562;2023-12-20T05:14:34;3.30;;;3.30;;
27802;SDS011;15182;48.174;11.562;2023-12-20T05:17:02;3.30;;;3.30;;
27802;SDS011;15182;48.174;11.562;2023-12-20T05:19:30;3.27;;;3.27;;
27802;SDS011;15182;48.174;11.562;2023-12-20T05:22:00;3.40;;;3.40;;
27802;SDS011;15182;48.174;11.562;2023-12-20T05:24:28;3.60;;;3.40;;
27802;SDS011;15182;48.174;11.562;2023-12-20T05:26:56;3.40;;;3.40;;
27802;SDS011;15182;48.174;11.562;2023-12-20T05:29:24;3.60;;;3.53;;
27802;SDS011;15182;48.174;11.562;2023-12-20T05:31:53;3.57;;;3.37;;
27802;SDS011;15182;48.174;11.562;2023-12-20T05:34:21;3.50;;;3.50;;
27802;SDS011;15182;48.174;11.562;2023-12-20T05:36:49;4.33;;;4.23;;
27802;SDS011;15182;48.174;11.562;2023-12-20T05:39:17;3.50;;;3.50;;
27802;SDS011;15182;48.174;11.562;2023-12-20T05:41:45;4.37;;;4.17;;
27802;SDS011;15182;48.174;11.562;2023-12-20T05:44:12;3.50;;;3.50;;
27802;SDS011;15182;48.174;11.562;2023-12-20T05:46:40;3.80;;;3.73;;
27802;SDS011;15182;48.174;11.562;2023-12-20T05:49:09;7.33;;;3.83;;
27802;SDS011;15182;48.174;11.562;2023-12-20T05:51:37;4.10;;;3.90;;
27802;SDS011;15182;48.174;11.562;2023-12-20T05:54:05;3.10;;;3.10;;
27802;SDS011;15182;48.174;11.562;2023-12-20T05:56:33;3.87;;;3.77;;
27802;SDS011;15182;48.174;11.562;2023-12-20T05:59:01;3.60;;;3.50;;
27802;SDS011;15182;48.174;11.562;2023-12-20T06:01:29;3.67;;;3.57;;
27802;SDS011;15182;48.174;11.562;2023-12-20T06:03:56;3.60;;;3.50;;
27802;SDS011;15182;48.174;11.562;2023-12-20T06:06:26;3.47;;;3.27;;
27802;SDS011;15182;48.174;11.562;2023-12-20T06:08:54;3.80;;;3.70;;
27802;SDS011;15182;48.174;11.562;2023-12-20T06:11:21;3.43;;;3.43;;
27802;SDS011;15182;48.174;11.562;2023-12-20T06:13:49;3.33;;;3.20;;
27802;SDS011;15182;48.174;11.562;2023-12-20T06:16:18;3.27;;;3.27;;
27802;SDS011;15182;48.174;11.562;2023-12-20T06:18:45;3.53;;;3.43;;
27802;SDS011;15182;48.174;11.562;2023-12-20T06:21:13;3.37;;;3.27;;
27802;SDS011;15182;48.174;11.562;2023-12-20T06:23:42;3.67;;;3.60;;
27802;SDS011;15182;48.174;11.562;2023-12-20T06:26:10;3.53;;;3.43;;
27802;SDS011;15182;48.174;11.562;2023-12-20T06:28:38;3.20;;;3.20;;
27802;SDS011;15182;48.174;11.562;2023-12-20T06:31:06;3.90;;;3.80;;
27802;SDS011;15182;48.174;11.562;2023-12-20T06:33:34;3.60;;;3.60;;
27802;SDS011;15182;48.174;11.562;2023-12-20T06:36:03;3.90;;;3.80;;
27802;SDS011;15182;48.174;11.562;2023-12-20T06:38:31;3.47;;;3.37;;
27802;SDS011;15182;48.174;11.562;2023-12-20T06:41:00;3.87;;;3.77;;
27802;SDS011;15182;48.174;11.562;2023-12-20T06:43:28;3.63;;;3.63;;
27802;SDS011;15182;48.174;11.562;2023-12-20T06:45:56;3.73;;;3.63;;
27802;SDS011;15182;48.174;11.562;2023-12-20T06:48:24;3.63;;;3.63;;
27802;SDS011;15182;48.174;11.562;2023-12-20T06:50:52;3.50;;;3.50;;
27802;SDS011;15182;48.174;11.562;2023-12-20T06:53:20;3.70;;;3.60;;
27802;SDS011;15182;48.174;11.562;2023-12-20T06:55:48;3.37;;;3.37;;
27802;SDS011;15182;48.174;11.562;2023-12-20T06:58:17;4.23;;;4.13;;
27802;SDS011;15182;48.174;11.562;2023-12-20T07:00:45;3.60;;;3.40;;
27802;SDS011;15182;48.174;11.562;2023-12-20T07:03:13;3.60;;;3.50;;
27802;SDS011;15182;48.174;11.562;2023-12-20T07:05:40;3.57;;;3.47;;
27802;SDS011;15182;48.174;11.562;2023-12-20T07:08:08;3.33;;;3.33;;
27802;SDS011;15182;48.174;11.562;2023-12-20T07:10:36;4.43;;;3.83;;
27802;SDS011;15182;48.174;11.562;2023-12-20T07:13:04;3.83;;;3.80;;
27802;SDS011;15182;48.174;11.562;2023-12-20T07:15:35;3.43;;;3.43;;
27802;SDS011;15182;48.174;11.562;2023-12-20T07:18:03;3.40;;;3.40;;
27802;SDS011;15182;48.174;11.562;2023-12-20T07:20:32;3.80;;;3.60;;
27802;SDS011;15182;48.174;11.562;2023-12-20T07:23:00;3.10;;;3.10;;
27802;SDS011;15182;48.174;11.562;2023-12-20T07:25:27;3.60;;;3.47;;
27802;SDS011;15182;48.174;11.562;2023-12-20T07:27:58;3.43;;;3.33;;
27802;SDS011;15182;48.174;11.562;2023-12-20T07:30:26;3.43;;;3.33;;
27802;SDS011;15182;48.174;11.562;2023-12-20T07:32:55;3.30;;;3.30;;
27802;SDS011;15182;48.174;11.562;2023-12-20T07:35:23;3.10;;;3.10;;
27802;SDS011;15182;48.174;11.562;2023-12-20T07:37:51;3.17;;;3.17;;
27802;SDS011;15182;48.174;11.562;2023-12-20T07:40:19;3.00;;;3.00;;
27802;SDS011;15182;48.174;11.562;2023-12-20T07:42:46;2.97;;;2.97;;
27802;SDS011;15182;48.174;11.562;2023-12-20T07:45:14;3.13;;;3.13;;
27802;SDS011;15182;48.174;11.562;2023-12-20T07:47:42;3.30;;;3.10;;
27802;SDS011;15182;48.174;11.562;2023-12-20T07:50:11;3.53;;;3.43;;
27802;SDS011;15182;48.174;11.562;2023-12-20T07:52:39;3.03;;;3.03;;
27802;SDS011;15182;48.174;11.562;2023-12-20T07:55:07;3.10;;;3.10;;
27802;SDS011;15182;48.174;11.562;2023-12-20T07:57:35;3.20;;;3.20;;
27802;SDS011;15182;48.174;11.562;2023-12-20T08:00:03;2.90;;;2.90;;
27802;SDS011;15182;48.174;11.562;2023-12-20T08:02:33;3.40;;;3.40;;
27802;SDS011;15182;48.174;11.562;2023-12-20T08:05:00;3.43;;;3.43;;
27802;SDS011;15182;48.174;11.562;2023-12-20T08:07:30;3.37;;;3.17;;
27802;SDS011;15182;48.174;11.562;2023-12-20T08:09:58;2.90;;;2.90;;
27802;SDS011;15182;48.174;11.562;2023-12-20T08:12:26;2.90;;;2.90;;
27802;SDS011;15182;48.174;11.562;2023-12-20T08:14:54;3.00;;;3.00;;
27802;SDS011;15182;48.174;11.562;2023-12-20T08:17:22;2.87;;;2.87;;
27802;SDS011;15182;48.174;11.562;2023-12-20T08:19:50;2.90;;;2.90;;
27802;SDS011;15182;48.174;11.562;2023-12-20T08:22:18;3.20;;;3.20;;
27802;SDS011;15182;48.174;11.562;2023-12-20T08:24:47;3.23;;;3.23;;
27802;SDS011;15182;48.174;11.562;2023-12-20T08:27:15;3.07;;;3.07;;
27802;SDS011;15182;48.174;11.562;2023-12-20T08:29:43;3.17;;;3.17;;
27802;SDS011;15182;48.174;11.562;2023-12-20T08:32:11;3.00;;;3.00;;
27802;SDS011;15182;48.174;11.562;2023-12-20T08:34:39;3.27;;;3.27;;
27802;SDS011;15182;48.174;11.562;2023-12-20T08:37:06;3.40;;;3.40;;
27802;SDS011;15182;48.174;11.562;2023-12-20T08:39:34;3.10;;;3.10;;
27802;SDS011;15182;48.174;11.562;2023-12-20T08:42:04;3.33;;;3.33;;
27802;SDS011;15182;48.174;11.562;2023-12-20T08:44:32;3.33;;;3.33;;
27802;SDS011;15182;48.174;11.562;2023-12-20T08:46:59;3.27;;;3.27;;
27802;SDS011;15182;48.174;11.562;2023-12-20T08:49:27;8.50;;;3.00;;
27802;SDS011;15182;48.174;11.562;2023-12-20T08:51:55;3.00;;;3.00;;
27802;SDS011;15182;48.174;11.562;2023-12-20T08:54:23;3.20;;;3.20;;
27802;SDS011;15182;48.174;11.562;2023-12-20T08:56:51;3.30;;;3.30;;
27802;SDS011;15182;48.174;11.562;2023-12-20T08:59:20;3.37;;;3.37;;
27802;SDS011;15182;48.174;11.562;2023-12-20T09:01:48;3.03;;;3.03;;
27802;SDS011;15182;48.174;11.562;2023-12-20T09:04:20;3.30;;;3.30;;
27802;SDS011;15182;48.174;11.562;2023-12-20T09:06:48;3.00;;;3.00;;
27802;SDS011;15182;48.174;11.562;2023-12-20T09:09:16;2.90;;;2.90;;
27802;SDS011;15182;48.174;11.562;2023-12-20T09:11:44;3.43;;;3.37;;
27802;SDS011;15182;48.174;11.562;2023-12-20T09:14:14;3.20;;;3.20;;
27802;SDS011;15182;48.174;11.562;2023-12-20T09:16:43;3.10;;;3.10;;
27802;SDS011;15182;48.174;11.562;2023-12-20T09:19:11;3.10;;;3.10;;
27802;SDS011;15182;48.174;11.562;2023-12-20T09:21:38;3.20;;;3.20;;
27802;SDS011;15182;48.174;11.562;2023-12-20T09:24:07;3.20;;;3.20;;
27802;SDS011;15182;48.174;11.562;2023-12-20T09:26:35;2.93;;;2.93;;
27802;SDS011;15182;48.174;11.562;2023-12-20T09:29:03;2.70;;;2.70;;
27802;SDS011;15182;48.174;11.562;2023-12-20T09:31:31;2.60;;;2.50;;
27802;SDS011;15182;48.174;11.562;2023-12-20T09:34:00;3.10;;;3.10;;
27802;SDS011;15182;48.174;11.562;2023-12-20T09:36:28;2.80;;;2.80;;
27802;SDS011;15182;48.174;11.562;2023-12-20T09:39:00;3.50;;;3.50;;
27802;SDS011;15182;48.174;11.562;2023-12-20T09:41:28;3.03;;;3.03;;
27802;SDS011;15182;48.174;11.562;2023-12-20T09:43:59;3.10;;;3.10;;
27802;SDS011;15182;48.174;11.562;2023-12-20T09:46:29;3.27;;;3.20;;
27802;SDS011;15182;48.174;11.562;2023-12-20T09:49:03;3.10;;;3.10;;
27802;SDS011;15182;48.174;11.562;2023-12-20T09:51:32;3.13;;;3.13;;
27802;SDS011;15182;48.174;11.562;2023-12-20T09:54:00;2.80;;;2.80;;
27802;SDS011;15182;48.174;11.562;2023-12-20T09:56:31;2.93;;;2.93;;
27802;SDS011;15182;48.174;11.562;2023-12-20T09:58:59;3.73;;;3.47;;
27802;SDS011;15182;48.174;11.562;2023-12-20T10:01:27;2.97;;;2.97;;
27802;SDS011;15182;48.174;11.562;2023-12-20T10:03:56;3.30;;;3.30;;
27802;SDS011;15182;48.174;11.562;2023-12-20T10:06:28;3.10;;;3.00;;
27802;SDS011;15182;48.174;11.562;2023-12-20T10:08:56;2.90;;;2.90;;
27802;SDS011;15182;48.174;11.562;2023-12-20T10:11:24;3.00;;;2.90;;
27802;SDS011;15182;48.174;11.562;2023-12-20T10:13:58;3.37;;;3.23;;
27802;SDS011;15182;48.174;11.562;2023-12-20T10:16:27;3.13;;;3.13;;
27802;SDS011;15182;48.174;11.562;2023-12-20T10:18:56;2.80;;;2.80;;
27802;SDS011;15182;48.174;11.562;2023-12-20T10:21:25;3.50;;;3.40;;
27802;SDS011;15182;48.174;11.562;2023-12-20T10:23:54;3.13;;;3.13;;
27802;SDS011;15182;48.174;11.562;2023-12-20T10:26:23;2.80;;;2.80;;
27802;SDS011;15182;48.174;11.562;2023-12-20T10:28:53;3.27;;;3.27;;
27802;SDS011;15182;48.174;11.562;2023-12-20T10:31:26;3.17;;;3.07;;
27802;SDS011;15182;48.174;11.562;2023-12-20T10:33:55;2.70;;;2.70;;
27802;SDS011;15182;48.174;11.562;2023-12-20T10:36:25;2.87;;;2.87;;
27802;SDS011;15182;48.174;11.562;2023-12-20T10:38:56;3.00;;;3.00;;
27802;SDS011;15182;48.174;11.562;2023-12-20T10:41:25;3.60;;;3.60;;
27802;SDS011;15182;48.174;11.562;2023-12-20T10:43:55;3.20;;;3.20;;
27802;SDS011;15182;48.174;11.562;2023-12-20T10:46:29;3.33;;;3.33;;
27802;SDS011;15182;48.174;11.562;2023-12-20T10:48:58;3.40;;;3.40;;
27802;SDS011;15182;48.174;11.562;2023-12-20T10:51:26;3.07;;;3.07;;
27802;SDS011;15182;48.174;11.562;2023-12-20T10:53:57;2.90;;;2.90;;
27802;SDS011;15182;48.174;11.562;2023-12-20T10:56:25;3.13;;;3.13;;
27802;SDS011;15182;48.174;11.562;2023-12-20T10:58:59;2.90;;;2.90;;
27802;SDS011;15182;48.174;11.562;2023-12-20T11:01:31;3.07;;;3.07;;
27802;SDS011;15182;48.174;11.562;2023-12-20T11:04:00;3.13;;;3.13;;
27802;SDS011;15182;48.174;11.562;2023-12-20T11:06:31;3.00;;;3.00;;
27802;SDS011;15182;48.174;11.562;2023-12-20T11:09:09;2.97;;;2.87;;
27802;SDS011;15182;48.174;11.562;2023-12-20T11:11:52;3.80;;;3.70;;
27802;SDS011;15182;48.174;11.562;2023-12-20T11:14:32;3.13;;;3.13;;
27802;SDS011;15182;48.174;11.562;2023-12-20T11:17:06;3.10;;;3.10;;
27802;SDS011;15182;48.174;11.562;2023-12-20T11:19:38;3.20;;;3.20;;
27802;SDS011;15182;48.174;11.562;2023-12-20T11:22:33;3.60;;;3.60;;
27802;SDS011;15182;48.174;11.562;2023-12-20T11:25:04;3.20;;;3.20;;
27802;SDS011;15182;48.174;11.562;2023-12-20T11:27:35;2.90;;;2.90;;
27802;SDS011;15182;48.174;11.562;2023-12-20T11:30:03;2.90;;;2.90;;
27802;SDS011;15182;48.174;11.562;2023-12-20T11:32:34;3.53;;;3.53;;
27802;SDS011;15182;48.174;11.562;2023-12-20T11:35:16;3.30;;;3.30;;
27802;SDS011;15182;48.174;11.562;2023-12-20T11:37:46;3.27;;;3.27;;
27802;SDS011;15182;48.174;11.562;2023-12-20T11:40:16;3.73;;;3.73;;
27802;SDS011;15182;48.174;11.562;2023-12-20T11:42:45;3.23;;;3.23;;
27802;SDS011;15182;48.174;11.562;2023-12-20T11:45:16;3.83;;;3.73;;
27802;SDS011;15182;48.174;11.562;2023-12-20T11:47:48;3.73;;;3.63;;
27802;SDS011;15182;48.174;11.562;2023-12-20T11:50:17;3.87;;;3.87;;
27802;SDS011;15182;48.174;11.562;2023-12-20T11:52:45;3.23;;;3.23;;
27802;SDS011;15182;48.174;11.562;2023-12-20T11:55:13;3.13;;;3.13;;
27802;SDS011;15182;48.174;11.562;2023-12-20T11:57:43;3.00;;;3.00;;
27802;SDS011;15182;48.174;11.562;2023-12-20T12:00:12;3.57;;;3.57;;
27802;SDS011;15182;48.174;11.562;2023-12-20T12:02:42;3.60;;;3.60;;
27802;SDS011;15182;48.174;11.562;2023-12-20T12:05:09;3.27;;;3.27;;
27802;SDS011;15182;48.174;11.562;2023-12-20T12:07:37;3.37;;;3.27;;
27802;SDS011;15182;48.174;11.562;2023-12-20T12:10:06;3.37;;;3.37;;
27802;SDS011;15182;48.174;11.562;2023-12-20T12:12:36;3.60;;;3.40;;
27802;SDS011;15182;48.174;11.562;2023-12-20T12:15:04;4.23;;;3.90;;
27802;SDS011;15182;48.174;11.562;2023-12-20T12:17:33;3.87;;;3.87;;
27802;SDS011;15182;48.174;11.562;2023-12-20T12:20:02;3.40;;;3.40;;
27802;SDS011;15182;48.174;11.562;2023-12-20T12:22:31;3.17;;;2.97;;
27802;SDS011;15182;48.174;11.562;2023-12-20T12:24:59;3.30;;;3.30;;
27802;SDS011;15182;48.174;11.562;2023-12-20T12:27:40;3.50;;;3.50;;
27802;SDS011;15182;48.174;11.562;2023-12-20T12:30:09;3.73;;;3.53;;
27802;SDS011;15182;48.174;11.562;2023-12-20T12:32:38;3.20;;;3.20;;
27802;SDS011;15182;48.174;11.562;2023-12-20T12:35:07;3.20;;;3.20;;
27802;SDS011;15182;48.174;11.562;2023-12-20T12:37:37;3.47;;;3.47;;
27802;SDS011;15182;48.174;11.562;2023-12-20T12:40:07;3.07;;;3.07;;
27802;SDS011;15182;48.174;11.562;2023-12-20T12:42:37;3.30;;;3.10;;
27802;SDS011;15182;48.174;11.562;2023-12-20T12:45:07;3.10;;;3.03;;
27802;SDS011;15182;48.174;11.562;2023-12-20T12:47:37;3.50;;;3.50;;
27802;SDS011;15182;48.174;11.562;2023-12-20T12:50:06;3.50;;;3.23;;
27802;SDS011;15182;48.174;11.562;2023-12-20T12:52:35;3.03;;;3.03;;
27802;SDS011;15182;48.174;11.562;2023-12-20T12:55:03;3.40;;;3.40;;
27802;SDS011;15182;48.174;11.562;2023-12-20T12:57:32;3.57;;;3.57;;
27802;SDS011;15182;48.174;11.562;2023-12-20T13:00:00;3.37;;;3.37;;
27802;SDS011;15182;48.174;11.562;2023-12-20T13:02:30;3.23;;;3.23;;
27802;SDS011;15182;48.174;11.562;2023-12-20T13:04:58;3.70;;;3.60;;
27802;SDS011;15182;48.174;11.562;2023-12-20T13:07:26;4.73;;;3.20;;
27802;SDS011;15182;48.174;11.562;2023-12-20T13:09:54;3.40;;;3.30;;
27802;SDS011;15182;48.174;11.562;2023-12-20T13:12:22;3.43;;;3.43;;
27802;SDS011;15182;48.174;11.562;2023-12-20T13:14:50;3.13;;;3.10;;
27802;SDS011;15182;48.174;11.562;2023-12-20T13:17:19;2.80;;;2.80;;
27802;SDS011;15182;48.174;11.562;2023-12-20T13:19:48;3.27;;;3.17;;
27802;SDS011;15182;48.174;11.562;2023-12-20T13:22:16;3.20;;;3.20;;
27802;SDS011;15182;48.174;11.562;2023-12-20T13:24:44;3.60;;;3.53;;
27802;SDS011;15182;48.174;11.562;2023-12-20T13:27:12;3.27;;;3.27;;
27802;SDS011;15182;48.174;11.562;2023-12-20T13:29:40;3.27;;;3.27;;
27802;SDS011;15182;48.174;11.562;2023-12-20T13:32:07;3.60;;;3.40;;
27802;SDS011;15182;48.174;11.562;2023-12-20T13:34:35;3.67;;;3.57;;
27802;SDS011;15182;48.174;11.562;2023-12-20T13:37:05;4.70;;;4.40;;
27802;SDS011;15182;48.174;11.562;2023-12-20T13:39:33;4.37;;;4.17;;
27802;SDS011;15182;48.174;11.562;2023-12-20T13:42:00;4.23;;;4.13;;
27802;SDS011;15182;48.174;11.562;2023-12-20T13:44:29;3.90;;;3.80;;
27802;SDS011;15182;48.174;11.562;2023-12-20T13:46:57;3.77;;;3.53;;
27802;SDS011;15182;48.174;11.562;2023-12-20T13:49:24;4.03;;;3.87;;
27802;SDS011;15182;48.174;11.562;2023-12-20T13:51:53;3.37;;;3.27;;
27802;SDS011;15182;48.174;11.562;2023-12-20T13:54:23;3.87;;;3.77;;
27802;SDS011;15182;48.174;11.562;2023-12-20T13:56:51;3.50;;;3.50;;
27802;SDS011;15182;48.174;11.562;2023-12-20T13:59:19;4.00;;;3.90;;
27802;SDS011;15182;48.174;11.562;2023-12-20T14:01:47;4.20;;;3.70;;
27802;SDS011;15182;48.174;11.562;2023-12-20T14:04:16;4.03;;;4.03;;
27802;SDS011;15182;48.174;11.562;2023-12-20T14:06:44;3.83;;;3.63;;
27802;SDS011;15182;48.174;11.562;2023-12-20T14:09:11;4.33;;;4.03;;
27802;SDS011;15182;48.174;11.562;2023-12-20T14:11:41;3.57;;;3.47;;
27802;SDS011;15182;48.174;11.562;2023-12-20T14:14:09;3.83;;;3.73;;
27802;SDS011;15182;48.174;11.562;2023-12-20T14:16:37;3.70;;;3.60;;
27802;SDS011;15182;48.174;11.562;2023-12-20T14:19:05;3.63;;;3.53;;
27802;SDS011;15182;48.174;11.562;2023-12-20T14:21:35;3.77;;;3.63;;
27802;SDS011;15182;48.174;11.562;2023-12-20T14:24:03;3.90;;;3.70;;
27802;SDS011;15182;48.174;11.562;2023-12-20T14:26:32;4.10;;;3.80;;
27802;SDS011;15182;48.174;11.562;2023-12-20T14:29:01;3.60;;;3.40;;
27802;SDS011;15182;48.174;11.562;2023-12-20T14:31:29;3.60;;;3.40;;
27802;SDS011;15182;48.174;11.562;2023-12-20T14:33:57;5.00;;;3.20;;
27802;SDS011;15182;48.174;11.562;2023-12-20T14:36:26;3.80;;;3.60;;
27802;SDS011;15182;48.174;11.562;2023-12-20T14:38:56;4.10;;;3.73;;
27802;SDS011;15182;48.174;11.562;2023-12-20T14:41:24;4.07;;;3.97;;